PRIVATE WETTERSTATION BILLIGHEIM-ALLFELD                       ZURCK
Wetterdaten: Mittwoch, 01.03.2017
Datum Zeit Temp. A. Temp. A. min Temp. A. max Feuchte A. Luftdruck Regen Wind Richtung Richtung Sonnenschein ET Solar Taupunkt Windchill Windben Empfang
01.03.2017 00:00 3,1 C 3,1 C 3,1 C 89 % 1000,9 hPa 0,0 l/m 12,9 km/h (3 Bft) SW 225 0 min 0,025 mm 0 W/m 1,5 C -2,0 C 25,7 km/h (4 Bft) 97 %
01.03.2017 00:10 3,1 C 3,1 C 3,1 C 90 % 1001,1 hPa 0,0 l/m 11,3 km/h (2 Bft) SW 225 0 min 0,000 mm 0 W/m 1,6 C -1,0 C 25,7 km/h (4 Bft) 98 %
01.03.2017 00:20 3,2 C 3,1 C 3,2 C 90 % 1001,2 hPa 0,0 l/m 11,3 km/h (2 Bft) SW 225 0 min 0,000 mm 0 W/m 1,7 C -0,8 C 27,4 km/h (4 Bft) 98 %
01.03.2017 00:30 3,3 C 3,2 C 3,3 C 90 % 1001,3 hPa 0,0 l/m 14,5 km/h (3 Bft) SW 225 0 min 0,000 mm 0 W/m 1,8 C -2,7 C 40,2 km/h (6 Bft) 98 %
01.03.2017 00:40 3,3 C 3,3 C 3,3 C 90 % 1001,3 hPa 0,0 l/m 12,9 km/h (3 Bft) SW 225 0 min 0,000 mm 0 W/m 1,8 C -1,8 C 29,0 km/h (5 Bft) 98 %
01.03.2017 00:50 3,3 C 3,3 C 3,3 C 90 % 1001,5 hPa 0,0 l/m 14,5 km/h (3 Bft) SW 225 0 min 0,000 mm 0 W/m 1,8 C -2,7 C 32,2 km/h (5 Bft) 98 %
01.03.2017 01:00 3,3 C 3,3 C 3,3 C 89 % 1001,6 hPa 0,0 l/m 14,5 km/h (3 Bft) SW 225 0 min 0,025 mm 0 W/m 1,7 C -2,7 C 32,2 km/h (5 Bft) 98 %
01.03.2017 01:10 3,3 C 3,3 C 3,3 C 88 % 1001,6 hPa 0,0 l/m 12,9 km/h (3 Bft) SW 225 0 min 0,000 mm 0 W/m 1,5 C -1,8 C 41,8 km/h (6 Bft) 87 %
01.03.2017 01:20 3,3 C 3,3 C 3,3 C 87 % 1001,5 hPa 0,0 l/m 14,5 km/h (3 Bft) W-SW 247 0 min 0,000 mm 0 W/m 1,3 C -2,7 C 33,8 km/h (5 Bft) 98 %
01.03.2017 01:30 3,2 C 3,2 C 3,3 C 87 % 1001,5 hPa 0,0 l/m 14,5 km/h (3 Bft) SW 225 0 min 0,000 mm 0 W/m 1,2 C -2,8 C 32,2 km/h (5 Bft) 98 %
01.03.2017 01:40 3,1 C 3,1 C 3,2 C 86 % 1001,5 hPa 0,0 l/m 16,1 km/h (3 Bft) S-SW 202 0 min 0,000 mm 0 W/m 1,0 C -3,8 C 32,2 km/h (5 Bft) 98 %
01.03.2017 01:50 3,1 C 3,1 C 3,1 C 85 % 1001,4 hPa 0,0 l/m 16,1 km/h (3 Bft) S-SW 202 0 min 0,000 mm 0 W/m 0,8 C -3,8 C 37,0 km/h (5 Bft) 98 %
01.03.2017 02:00 3,1 C 3,1 C 3,1 C 85 % 1001,6 hPa 0,0 l/m 14,5 km/h (3 Bft) S-SW 202 0 min 0,025 mm 0 W/m 0,8 C -2,9 C 32,2 km/h (5 Bft) 97 %
01.03.2017 02:10 3,2 C 3,1 C 3,2 C 85 % 1001,6 hPa 0,0 l/m 14,5 km/h (3 Bft) S-SW 202 0 min 0,000 mm 0 W/m 0,9 C -2,8 C 29,0 km/h (5 Bft) 97 %
01.03.2017 02:20 3,2 C 3,2 C 3,2 C 85 % 1001,5 hPa 0,0 l/m 12,9 km/h (3 Bft) S-SW 202 0 min 0,000 mm 0 W/m 0,9 C -1,9 C 25,7 km/h (4 Bft) 97 %
01.03.2017 02:30 3,1 C 3,1 C 3,2 C 85 % 1001,5 hPa 0,0 l/m 14,5 km/h (3 Bft) S-SW 202 0 min 0,000 mm 0 W/m 0,8 C -2,9 C 22,5 km/h (4 Bft) 97 %
01.03.2017 02:40 3,1 C 3,1 C 3,1 C 85 % 1001,6 hPa 0,0 l/m 14,5 km/h (3 Bft) S-SW 202 0 min 0,000 mm 0 W/m 0,8 C -2,9 C 30,6 km/h (5 Bft) 98 %
01.03.2017 02:50 3,1 C 3,1 C 3,1 C 85 % 1001,5 hPa 0,0 l/m 12,9 km/h (3 Bft) S-SW 202 0 min 0,000 mm 0 W/m 0,8 C -2,0 C 27,4 km/h (4 Bft) 98 %
01.03.2017 03:00 3,2 C 3,1 C 3,2 C 84 % 1001,6 hPa 0,0 l/m 11,3 km/h (2 Bft) S-SW 202 0 min 0,025 mm 0 W/m 0,8 C -0,8 C 20,9 km/h (4 Bft) 97 %
01.03.2017 03:10 3,2 C 3,2 C 3,2 C 85 % 1001,6 hPa 0,0 l/m 14,5 km/h (3 Bft) S-SW 202 0 min 0,000 mm 0 W/m 0,9 C -2,8 C 38,6 km/h (5 Bft) 97 %
01.03.2017 03:20 2,9 C 2,9 C 3,2 C 88 % 1001,7 hPa 0,4 l/m 19,3 km/h (3 Bft) SW 225 0 min 0,000 mm 0 W/m 1,1 C -5,6 C 38,6 km/h (5 Bft) 98 %
01.03.2017 03:30 2,8 C 2,8 C 2,9 C 89 % 1001,5 hPa 0,0 l/m 17,7 km/h (3 Bft) S-SW 202 0 min 0,000 mm 0 W/m 1,2 C -5,0 C 35,4 km/h (5 Bft) 98 %
01.03.2017 03:40 2,8 C 2,8 C 2,8 C 90 % 1001,6 hPa 0,0 l/m 12,9 km/h (3 Bft) SW 225 0 min 0,000 mm 0 W/m 1,3 C -2,4 C 25,7 km/h (4 Bft) 97 %
01.03.2017 03:50 2,9 C 2,8 C 2,9 C 90 % 1001,8 hPa 0,0 l/m 11,3 km/h (2 Bft) SW 225 0 min 0,000 mm 0 W/m 1,4 C -1,2 C 25,7 km/h (4 Bft) 98 %
01.03.2017 04:00 3,1 C 2,9 C 3,1 C 89 % 1001,8 hPa 0,0 l/m 16,1 km/h (3 Bft) SW 225 0 min 0,025 mm 0 W/m 1,5 C -3,8 C 35,4 km/h (5 Bft) 98 %
01.03.2017 04:10 3,2 C 3,1 C 3,2 C 89 % 1001,9 hPa 0,0 l/m 16,1 km/h (3 Bft) SW 225 0 min 0,000 mm 0 W/m 1,6 C -3,7 C 32,2 km/h (5 Bft) 98 %
01.03.2017 04:20 3,4 C 3,2 C 3,4 C 88 % 1002,0 hPa 0,0 l/m 22,5 km/h (4 Bft) SW 225 0 min 0,000 mm 0 W/m 1,6 C -6,2 C 49,9 km/h (6 Bft) 98 %
01.03.2017 04:30 3,4 C 3,4 C 3,5 C 88 % 1001,9 hPa 0,0 l/m 22,5 km/h (4 Bft) SW 225 0 min 0,000 mm 0 W/m 1,6 C -6,2 C 46,7 km/h (6 Bft) 98 %
01.03.2017 04:40 3,4 C 3,4 C 3,5 C 89 % 1002,1 hPa 0,0 l/m 16,1 km/h (3 Bft) SW 225 0 min 0,000 mm 0 W/m 1,8 C -3,4 C 37,0 km/h (5 Bft) 89 %
01.03.2017 04:50 3,3 C 3,3 C 3,4 C 89 % 1002,1 hPa 0,0 l/m 16,1 km/h (3 Bft) SW 225 0 min 0,000 mm 0 W/m 1,7 C -3,6 C 35,4 km/h (5 Bft) 97 %
01.03.2017 05:00 3,3 C 3,3 C 3,3 C 89 % 1002,0 hPa 0,0 l/m 17,7 km/h (3 Bft) SW 225 0 min 0,025 mm 0 W/m 1,7 C -4,3 C 41,8 km/h (6 Bft) 98 %
01.03.2017 05:10 3,3 C 3,3 C 3,3 C 90 % 1002,2 hPa 0,0 l/m 17,7 km/h (3 Bft) SW 225 0 min 0,000 mm 0 W/m 1,8 C -4,3 C 33,8 km/h (5 Bft) 97 %
01.03.2017 05:20 3,3 C 3,3 C 3,3 C 90 % 1002,4 hPa 0,0 l/m 16,1 km/h (3 Bft) SW 225 0 min 0,000 mm 0 W/m 1,8 C -3,6 C 43,5 km/h (6 Bft) 98 %
01.03.2017 05:30 3,2 C 3,2 C 3,3 C 90 % 1002,6 hPa 0,0 l/m 14,5 km/h (3 Bft) SW 225 0 min 0,000 mm 0 W/m 1,7 C -2,8 C 33,8 km/h (5 Bft) 97 %
01.03.2017 05:40 3,3 C 3,2 C 3,3 C 90 % 1002,6 hPa 0,0 l/m 12,9 km/h (3 Bft) SW 225 0 min 0,000 mm 0 W/m 1,8 C -1,8 C 32,2 km/h (5 Bft) 98 %
01.03.2017 05:50 3,3 C 3,3 C 3,3 C 90 % 1002,7 hPa 0,0 l/m 11,3 km/h (2 Bft) SW 225 0 min 0,000 mm 0 W/m 1,8 C -0,7 C 27,4 km/h (4 Bft) 98 %
01.03.2017 06:00 3,4 C 3,3 C 3,4 C 90 % 1002,7 hPa 0,0 l/m 12,9 km/h (3 Bft) S-SW 202 0 min 0,025 mm 0 W/m 1,9 C -1,7 C 22,5 km/h (4 Bft) 97 %
01.03.2017 06:10 3,4 C 3,4 C 3,4 C 90 % 1002,6 hPa 0,0 l/m 12,9 km/h (3 Bft) SW 225 0 min 0,000 mm 0 W/m 1,9 C -1,7 C 32,2 km/h (5 Bft) 98 %
01.03.2017 06:20 3,6 C 3,4 C 3,6 C 90 % 1002,8 hPa 0,0 l/m 14,5 km/h (3 Bft) SW 225 0 min 0,000 mm 0 W/m 2,1 C -2,3 C 27,4 km/h (4 Bft) 97 %
01.03.2017 06:30 3,6 C 3,6 C 3,6 C 90 % 1002,8 hPa 0,0 l/m 16,1 km/h (3 Bft) S-SW 202 0 min 0,000 mm 0 W/m 2,1 C -3,2 C 37,0 km/h (5 Bft) 89 %
01.03.2017 06:40 3,7 C 3,6 C 3,7 C 89 % 1002,9 hPa 0,0 l/m 14,5 km/h (3 Bft) SW 225 0 min 0,000 mm 0 W/m 2,1 C -2,2 C 40,2 km/h (6 Bft) 97 %
01.03.2017 06:50 3,7 C 3,7 C 3,7 C 89 % 1003,0 hPa 0,0 l/m 16,1 km/h (3 Bft) SW 225 0 min 0,000 mm 0 W/m 2,1 C -3,1 C 30,6 km/h (5 Bft) 99 %
01.03.2017 07:00 3,8 C 3,7 C 3,8 C 89 % 1003,1 hPa 0,0 l/m 16,1 km/h (3 Bft) SW 225 0 min 0,025 mm 0 W/m 2,2 C -2,9 C 32,2 km/h (5 Bft) 98 %
01.03.2017 07:10 3,8 C 3,8 C 3,8 C 89 % 1003,3 hPa 0,0 l/m 16,1 km/h (3 Bft) SW 225 0 min 0,000 mm 0 W/m 2,2 C -2,9 C 37,0 km/h (5 Bft) 100 %
01.03.2017 07:20 3,9 C 3,8 C 3,9 C 89 % 1003,5 hPa 0,0 l/m 14,5 km/h (3 Bft) SW 225 0 min 0,000 mm 7 W/m 2,3 C -2,0 C 32,2 km/h (5 Bft) 100 %
01.03.2017 07:30 3,8 C 3,8 C 3,9 C 89 % 1003,6 hPa 0,0 l/m 16,1 km/h (3 Bft) SW 225 0 min 0,000 mm 7 W/m 2,2 C -2,9 C 33,8 km/h (5 Bft) 100 %
01.03.2017 07:40 3,8 C 3,8 C 3,9 C 89 % 1003,7 hPa 0,0 l/m 16,1 km/h (3 Bft) SW 225 0 min 0,000 mm 9 W/m 2,2 C -2,9 C 35,4 km/h (5 Bft) 100 %
01.03.2017 07:50 3,8 C 3,8 C 3,8 C 89 % 1003,8 hPa 0,0 l/m 12,9 km/h (3 Bft) SW 225 0 min 0,000 mm 18 W/m 2,2 C -1,2 C 30,6 km/h (5 Bft) 100 %
01.03.2017 08:00 3,8 C 3,8 C 3,8 C 89 % 1003,9 hPa 0,0 l/m 14,5 km/h (3 Bft) SW 225 0 min 0,025 mm 23 W/m 2,2 C -2,1 C 30,6 km/h (5 Bft) 99 %
01.03.2017 08:10 3,9 C 3,8 C 3,9 C 89 % 1004,1 hPa 0,0 l/m 14,5 km/h (3 Bft) SW 225 0 min 0,000 mm 21 W/m 2,3 C -2,0 C 35,4 km/h (5 Bft) 100 %
01.03.2017 08:20 4,0 C 3,9 C 4,0 C 89 % 1004,3 hPa 0,0 l/m 16,1 km/h (3 Bft) SW 225 0 min 0,000 mm 49 W/m 2,4 C -2,7 C 32,2 km/h (5 Bft) 100 %
01.03.2017 08:30 4,1 C 4,0 C 4,1 C 89 % 1004,4 hPa 0,0 l/m 16,1 km/h (3 Bft) SW 225 0 min 0,000 mm 54 W/m 2,5 C -2,6 C 33,8 km/h (5 Bft) 100 %
01.03.2017 08:40 4,2 C 4,1 C 4,2 C 88 % 1004,7 hPa 0,0 l/m 20,9 km/h (4 Bft) SW 225 0 min 0,000 mm 65 W/m 2,4 C -4,6 C 43,5 km/h (6 Bft) 100 %
01.03.2017 08:50 4,3 C 4,2 C 4,3 C 89 % 1004,8 hPa 0,0 l/m 20,9 km/h (4 Bft) SW 225 0 min 0,000 mm 118 W/m 2,7 C -4,4 C 46,7 km/h (6 Bft) 100 %
01.03.2017 09:00 4,4 C 4,3 C 4,4 C 88 % 1004,8 hPa 0,0 l/m 17,7 km/h (3 Bft) SW 225 0 min 0,025 mm 91 W/m 2,6 C -3,0 C 40,2 km/h (6 Bft) 100 %
01.03.2017 09:10 4,7 C 4,4 C 4,7 C 87 % 1004,8 hPa 0,2 l/m 20,9 km/h (4 Bft) SW 225 10 min 0,000 mm 185 W/m 2,7 C -3,9 C 45,1 km/h (6 Bft) 100 %
01.03.2017 09:20 5,0 C 4,7 C 5,0 C 86 % 1005,0 hPa 0,0 l/m 19,3 km/h (3 Bft) SW 225 10 min 0,000 mm 243 W/m 2,9 C -2,9 C 41,8 km/h (6 Bft) 100 %
01.03.2017 09:30 5,1 C 5,0 C 5,1 C 85 % 1005,0 hPa 0,0 l/m 19,3 km/h (3 Bft) SW 225 0 min 0,000 mm 142 W/m 2,8 C -2,8 C 43,5 km/h (6 Bft) 100 %
01.03.2017 09:40 5,4 C 5,1 C 5,4 C 85 % 1005,1 hPa 0,0 l/m 24,1 km/h (4 Bft) W-SW 247 10 min 0,000 mm 169 W/m 3,1 C -4,1 C 48,3 km/h (6 Bft) 100 %
01.03.2017 09:50 5,6 C 5,4 C 5,6 C 83 % 1005,4 hPa 0,0 l/m 24,1 km/h (4 Bft) W-SW 247 10 min 0,000 mm 200 W/m 2,9 C -3,8 C 46,7 km/h (6 Bft) 100 %
01.03.2017 10:00 5,8 C 5,6 C 5,8 C 83 % 1005,5 hPa 0,0 l/m 19,3 km/h (3 Bft) W-SW 247 10 min 0,076 mm 320 W/m 3,1 C -1,9 C 41,8 km/h (6 Bft) 100 %
01.03.2017 10:10 5,9 C 5,8 C 6,0 C 81 % 1005,5 hPa 0,0 l/m 22,5 km/h (4 Bft) W-SW 247 10 min 0,000 mm 220 W/m 2,9 C -2,9 C 59,5 km/h (7 Bft) 100 %
01.03.2017 10:20 5,9 C 5,9 C 6,0 C 81 % 1005,9 hPa 0,0 l/m 20,9 km/h (4 Bft) W-SW 247 10 min 0,000 mm 265 W/m 2,9 C -2,3 C 41,8 km/h (6 Bft) 100 %
01.03.2017 10:30 6,1 C 5,9 C 6,1 C 81 % 1005,8 hPa 0,0 l/m 16,1 km/h (3 Bft) W-SW 247 10 min 0,000 mm 239 W/m 3,1 C -0,1 C 32,2 km/h (5 Bft) 92 %
01.03.2017 10:40 6,2 C 6,1 C 6,2 C 80 % 1006,1 hPa 0,0 l/m 24,1 km/h (4 Bft) SW 225 10 min 0,000 mm 278 W/m 3,0 C -3,0 C 43,5 km/h (6 Bft) 100 %
01.03.2017 10:50 6,1 C 6,1 C 6,2 C 81 % 1006,2 hPa 0,0 l/m 22,5 km/h (4 Bft) SW 225 10 min 0,000 mm 234 W/m 3,1 C -2,6 C 38,6 km/h (5 Bft) 100 %
01.03.2017 11:00 6,1 C 6,1 C 6,1 C 81 % 1006,2 hPa 0,0 l/m 22,5 km/h (4 Bft) SW 225 10 min 0,127 mm 225 W/m 3,1 C -2,6 C 53,1 km/h (7 Bft) 100 %
01.03.2017 11:10 5,9 C 5,9 C 6,1 C 82 % 1006,3 hPa 0,0 l/m 22,5 km/h (4 Bft) SW 225 10 min 0,000 mm 165 W/m 3,1 C -2,9 C 41,8 km/h (6 Bft) 100 %
01.03.2017 11:20 5,8 C 5,8 C 5,9 C 84 % 1006,3 hPa 0,0 l/m 14,5 km/h (3 Bft) SW 225 10 min 0,000 mm 163 W/m 3,3 C 0,3 C 29,0 km/h (5 Bft) 100 %
01.03.2017 11:30 5,9 C 5,8 C 5,9 C 84 % 1006,4 hPa 0,0 l/m 16,1 km/h (3 Bft) SW 225 10 min 0,000 mm 265 W/m 3,4 C -0,4 C 38,6 km/h (5 Bft) 100 %
01.03.2017 11:40 6,2 C 5,9 C 6,2 C 82 % 1006,5 hPa 0,0 l/m 14,5 km/h (3 Bft) SW 225 10 min 0,000 mm 294 W/m 3,4 C 0,8 C 38,6 km/h (5 Bft) 100 %
01.03.2017 11:50 6,5 C 6,2 C 6,5 C 81 % 1006,5 hPa 0,0 l/m 17,7 km/h (3 Bft) W-SW 247 10 min 0,000 mm 316 W/m 3,5 C -0,3 C 35,4 km/h (5 Bft) 100 %
01.03.2017 12:00 6,9 C 6,5 C 6,9 C 78 % 1006,8 hPa 0,0 l/m 16,1 km/h (3 Bft) W-SW 247 10 min 0,127 mm 531 W/m 3,3 C 0,9 C 32,2 km/h (5 Bft) 100 %
01.03.2017 12:10 7,1 C 6,9 C 7,1 C 78 % 1006,6 hPa 0,0 l/m 17,7 km/h (3 Bft) SW 225 10 min 0,000 mm 274 W/m 3,5 C 0,4 C 41,8 km/h (6 Bft) 100 %
01.03.2017 12:20 7,0 C 7,0 C 7,1 C 77 % 1006,7 hPa 0,0 l/m 17,7 km/h (3 Bft) W-SW 247 10 min 0,000 mm 237 W/m 3,2 C 0,3 C 37,0 km/h (5 Bft) 100 %
01.03.2017 12:30 7,1 C 6,9 C 7,1 C 77 % 1006,6 hPa 0,0 l/m 20,9 km/h (4 Bft) W-SW 247 10 min 0,000 mm 649 W/m 3,3 C -0,8 C 40,2 km/h (6 Bft) 100 %
01.03.2017 12:40 7,6 C 7,1 C 7,6 C 76 % 1006,4 hPa 0,0 l/m 11,3 km/h (2 Bft) SW 225 10 min 0,000 mm 316 W/m 3,6 C 4,1 C 33,8 km/h (5 Bft) 100 %
01.03.2017 13:10 7,1 C 7,1 C 7,6 C 78 % 1006,5 hPa 0,0 l/m 19,8 km/h (3 Bft) SW 220 0 min 0,106 mm 107 W/m 3,5 C -0,4 C 38,6 km/h (5 Bft) 97 %
01.03.2017 13:20 6,8 C 6,8 C 7,1 C 78 % 1006,4 hPa 0,0 l/m 18,8 km/h (3 Bft) W-SW 244 0 min 0,000 mm 144 W/m 3,2 C -0,4 C 35,4 km/h (5 Bft) 98 %
01.03.2017 13:30 6,8 C 6,8 C 6,8 C 78 % 1006,4 hPa 0,0 l/m 18,3 km/h (3 Bft) S-SW 205 0 min 0,000 mm 39 W/m 3,2 C -0,2 C 37,0 km/h (5 Bft) 98 %
01.03.2017 13:40 6,7 C 6,7 C 6,8 C 78 % 1006,3 hPa 0,0 l/m 21,5 km/h (4 Bft) S-SW 198 0 min 0,000 mm 77 W/m 3,1 C -1,5 C 41,8 km/h (6 Bft) 97 %
01.03.2017 13:50 6,6 C 6,6 C 6,7 C 78 % 1006,3 hPa 0,0 l/m 21,8 km/h (4 Bft) W 277 0 min 0,000 mm 128 W/m 3,0 C -1,7 C 37,0 km/h (5 Bft) 97 %
01.03.2017 14:00 6,7 C 6,6 C 6,7 C 79 % 1006,2 hPa 0,0 l/m 17,4 km/h (3 Bft) W 265 0 min 0,076 mm 123 W/m 3,3 C 0,1 C 33,8 km/h (5 Bft) 98 %
01.03.2017 14:10 6,8 C 6,7 C 6,8 C 77 % 1006,0 hPa 0,0 l/m 16,9 km/h (3 Bft) S 170 0 min 0,000 mm 67 W/m 3,1 C 0,4 C 33,8 km/h (5 Bft) 97 %
01.03.2017 14:20 6,8 C 6,8 C 6,8 C 78 % 1006,0 hPa 0,0 l/m 15,2 km/h (3 Bft) SW 221 0 min 0,000 mm 72 W/m 3,2 C 1,2 C 32,2 km/h (5 Bft) 90 %
01.03.2017 14:30 6,9 C 6,8 C 6,9 C 76 % 1006,1 hPa 0,0 l/m 21,2 km/h (4 Bft) S-SW 204 0 min 0,000 mm 70 W/m 3,0 C -1,1 C 45,1 km/h (6 Bft) 97 %
01.03.2017 14:40 7,0 C 6,9 C 7,1 C 76 % 1006,2 hPa 0,0 l/m 19,1 km/h (3 Bft) S-SW 206 0 min 0,000 mm 83 W/m 3,1 C -0,3 C 45,1 km/h (6 Bft) 97 %
01.03.2017 14:50 7,0 C 7,0 C 7,1 C 78 % 1006,5 hPa 0,0 l/m 20,0 km/h (4 Bft) SW 224 0 min 0,000 mm 49 W/m 3,4 C -0,6 C 40,2 km/h (6 Bft) 98 %
01.03.2017 15:00 7,0 C 6,9 C 7,0 C 78 % 1006,4 hPa 0,0 l/m 14,2 km/h (3 Bft) W-SW 244 0 min 0,076 mm 118 W/m 3,4 C 1,9 C 29,0 km/h (5 Bft) 98 %
01.03.2017 15:10 7,1 C 7,0 C 7,1 C 77 % 1006,3 hPa 0,0 l/m 13,5 km/h (3 Bft) W-SW 258 0 min 0,000 mm 130 W/m 3,3 C 2,4 C 33,8 km/h (5 Bft) 97 %
01.03.2017 15:20 7,3 C 7,1 C 7,3 C 77 % 1006,4 hPa 0,0 l/m 10,8 km/h (2 Bft) W-SW 241 10 min 0,000 mm 153 W/m 3,5 C 4,1 C 24,1 km/h (4 Bft) 96 %
01.03.2017 15:30 7,3 C 7,3 C 7,3 C 79 % 1006,6 hPa 0,0 l/m 11,2 km/h (2 Bft) SW 226 0 min 0,000 mm 76 W/m 3,9 C 3,9 C 33,8 km/h (5 Bft) 98 %
01.03.2017 15:40 7,0 C 7,0 C 7,3 C 82 % 1006,7 hPa 0,0 l/m 10,8 km/h (2 Bft) W-NW 295 0 min 0,000 mm 79 W/m 4,1 C 3,8 C 27,4 km/h (4 Bft) 97 %
01.03.2017 15:50 6,6 C 6,6 C 7,0 C 85 % 1006,6 hPa 0,0 l/m 6,9 km/h (2 Bft) W-NW 294 0 min 0,000 mm 91 W/m 4,3 C 6,2 C 16,1 km/h (3 Bft) 98 %
01.03.2017 16:00 6,3 C 6,3 C 6,6 C 87 % 1006,7 hPa 0,0 l/m 5,6 km/h (1 Bft) W-SW 250 0 min 0,051 mm 90 W/m 4,3 C 6,3 C 11,3 km/h (2 Bft) 97 %
01.03.2017 16:10 6,2 C 6,2 C 6,3 C 88 % 1006,7 hPa 0,0 l/m 7,1 km/h (2 Bft) W-SW 245 0 min 0,000 mm 65 W/m 4,4 C 5,6 C 19,3 km/h (3 Bft) 97 %
01.03.2017 16:20 6,1 C 6,1 C 6,2 C 88 % 1006,7 hPa 0,2 l/m 8,0 km/h (2 Bft) SW 217 0 min 0,000 mm 33 W/m 4,3 C 4,8 C 16,1 km/h (3 Bft) 97 %
01.03.2017 16:30 6,0 C 6,0 C 6,1 C 89 % 1006,6 hPa 0,0 l/m 7,5 km/h (2 Bft) SW 229 0 min 0,000 mm 33 W/m 4,3 C 5,1 C 17,7 km/h (3 Bft) 98 %
01.03.2017 16:40 5,9 C 5,9 C 6,0 C 89 % 1006,6 hPa 0,0 l/m 9,1 km/h (2 Bft) S-SW 196 0 min 0,000 mm 32 W/m 4,2 C 3,7 C 17,7 km/h (3 Bft) 97 %
01.03.2017 16:50 6,0 C 5,9 C 6,0 C 89 % 1006,5 hPa 0,0 l/m 14,6 km/h (3 Bft) SW 221 0 min 0,000 mm 26 W/m 4,3 C 0,5 C 25,7 km/h (4 Bft) 98 %
01.03.2017 17:00 6,1 C 6,0 C 6,1 C 89 % 1006,6 hPa 0,2 l/m 17,6 km/h (3 Bft) S-SW 207 0 min 0,025 mm 12 W/m 4,4 C -0,8 C 25,7 km/h (4 Bft) 97 %
01.03.2017 17:10 6,1 C 6,1 C 6,1 C 89 % 1006,8 hPa 0,2 l/m 19,1 km/h (3 Bft) SW 215 0 min 0,000 mm 12 W/m 4,4 C -1,4 C 53,1 km/h (7 Bft) 98 %
01.03.2017 17:20 5,9 C 5,9 C 6,1 C 89 % 1006,8 hPa 0,2 l/m 21,3 km/h (4 Bft) SW 219 0 min 0,000 mm 9 W/m 4,2 C -2,5 C 40,2 km/h (6 Bft) 97 %
01.03.2017 17:30 5,6 C 5,6 C 5,9 C 89 % 1007,0 hPa 0,2 l/m 25,3 km/h (4 Bft) S-SW 192 0 min 0,000 mm 5 W/m 3,9 C -4,2 C 40,2 km/h (6 Bft) 98 %
01.03.2017 17:40 5,4 C 5,4 C 5,6 C 90 % 1006,9 hPa 0,4 l/m 11,7 km/h (2 Bft) S-SW 196 0 min 0,000 mm 0 W/m 3,9 C 1,4 C 30,6 km/h (5 Bft) 97 %
01.03.2017 17:50 5,3 C 5,3 C 5,4 C 91 % 1006,8 hPa 0,4 l/m 11,2 km/h (2 Bft) S-SW 203 0 min 0,000 mm 0 W/m 4,0 C 1,6 C 20,9 km/h (4 Bft) 98 %
01.03.2017 18:00 5,2 C 5,2 C 5,3 C 91 % 1006,8 hPa 0,2 l/m 9,9 km/h (2 Bft) S-SW 205 0 min 0,026 mm 0 W/m 3,9 C 2,4 C 19,3 km/h (3 Bft) 98 %
01.03.2017 18:10 5,2 C 5,2 C 5,2 C 91 % 1006,8 hPa 0,2 l/m 7,1 km/h (2 Bft) S 173 0 min 0,000 mm 0 W/m 3,9 C 4,6 C 16,1 km/h (3 Bft) 99 %
01.03.2017 18:20 5,1 C 5,1 C 5,2 C 91 % 1006,7 hPa 0,0 l/m 4,3 km/h (1 Bft) S 180 0 min 0,000 mm 0 W/m 3,8 C 5,1 C 11,3 km/h (2 Bft) 100 %
01.03.2017 18:30 5,1 C 5,1 C 5,1 C 91 % 1006,8 hPa 0,2 l/m 4,0 km/h (1 Bft) S 181 0 min 0,000 mm 0 W/m 3,8 C 5,1 C 14,5 km/h (3 Bft) 100 %
01.03.2017 18:40 5,0 C 5,0 C 5,1 C 91 % 1006,5 hPa 0,2 l/m 6,3 km/h (2 Bft) S 180 0 min 0,000 mm 0 W/m 3,7 C 5,0 C 14,5 km/h (3 Bft) 100 %
01.03.2017 18:50 5,0 C 4,9 C 5,0 C 91 % 1006,4 hPa 0,0 l/m 5,9 km/h (2 Bft) S-SO 159 0 min 0,000 mm 0 W/m 3,7 C 5,0 C 14,5 km/h (3 Bft) 99 %
01.03.2017 19:00 4,9 C 4,9 C 5,0 C 91 % 1006,3 hPa 0,0 l/m 7,5 km/h (2 Bft) S 190 0 min 0,000 mm 0 W/m 3,6 C 3,9 C 16,1 km/h (3 Bft) 100 %
01.03.2017 19:10 4,9 C 4,9 C 4,9 C 91 % 1006,1 hPa 0,0 l/m 7,6 km/h (2 Bft) S-SO 161 0 min 0,000 mm 0 W/m 3,6 C 3,8 C 20,9 km/h (4 Bft) 100 %
01.03.2017 19:20 4,9 C 4,9 C 4,9 C 91 % 1006,1 hPa 0,0 l/m 6,8 km/h (2 Bft) S-SO 160 0 min 0,000 mm 0 W/m 3,6 C 4,6 C 17,7 km/h (3 Bft) 100 %
01.03.2017 19:30 4,9 C 4,9 C 4,9 C 91 % 1005,9 hPa 0,0 l/m 5,9 km/h (2 Bft) S 183 0 min 0,000 mm 0 W/m 3,6 C 4,9 C 16,1 km/h (3 Bft) 100 %
01.03.2017 19:40 4,9 C 4,8 C 4,9 C 91 % 1005,7 hPa 0,0 l/m 4,4 km/h (1 Bft) S-SO 159 0 min 0,000 mm 0 W/m 3,6 C 4,9 C 9,7 km/h (2 Bft) 100 %
01.03.2017 19:50 4,9 C 4,8 C 4,9 C 91 % 1005,5 hPa 0,0 l/m 4,5 km/h (1 Bft) S-SW 195 0 min 0,000 mm 0 W/m 3,6 C 4,9 C 16,1 km/h (3 Bft) 100 %
01.03.2017 20:00 4,8 C 4,8 C 4,9 C 91 % 1005,4 hPa 0,0 l/m 5,2 km/h (1 Bft) S 178 0 min 0,000 mm 0 W/m 3,5 C 4,8 C 14,5 km/h (3 Bft) 100 %
01.03.2017 20:10 4,8 C 4,8 C 4,8 C 91 % 1005,4 hPa 0,0 l/m 3,5 km/h (1 Bft) S-SO 165 0 min 0,000 mm 0 W/m 3,5 C 4,8 C 11,3 km/h (2 Bft) 100 %
01.03.2017 20:20 4,9 C 4,8 C 4,9 C 92 % 1005,2 hPa 0,0 l/m 5,6 km/h (1 Bft) S 170 0 min 0,000 mm 0 W/m 3,7 C 4,9 C 14,5 km/h (3 Bft) 100 %
01.03.2017 20:30 4,9 C 4,9 C 4,9 C 92 % 1005,1 hPa 0,0 l/m 7,2 km/h (2 Bft) S 170 0 min 0,000 mm 0 W/m 3,7 C 4,2 C 19,3 km/h (3 Bft) 100 %
01.03.2017 20:40 4,9 C 4,9 C 5,0 C 92 % 1005,0 hPa 0,2 l/m 10,0 km/h (2 Bft) S-SW 193 0 min 0,000 mm 0 W/m 3,7 C 2,0 C 25,7 km/h (4 Bft) 100 %
01.03.2017 20:50 5,0 C 4,9 C 5,0 C 92 % 1004,9 hPa 0,2 l/m 8,4 km/h (2 Bft) S 188 0 min 0,000 mm 0 W/m 3,8 C 3,3 C 19,3 km/h (3 Bft) 100 %
01.03.2017 21:00 4,9 C 4,9 C 5,0 C 92 % 1004,8 hPa 0,0 l/m 8,4 km/h (2 Bft) S 186 0 min 0,000 mm 0 W/m 3,7 C 3,2 C 19,3 km/h (3 Bft) 100 %
01.03.2017 21:10 4,9 C 4,9 C 5,0 C 92 % 1004,6 hPa 0,4 l/m 6,4 km/h (2 Bft) S 180 0 min 0,000 mm 0 W/m 3,7 C 4,9 C 16,1 km/h (3 Bft) 100 %
01.03.2017 21:20 4,9 C 4,9 C 4,9 C 92 % 1004,6 hPa 0,2 l/m 6,4 km/h (2 Bft) S 180 0 min 0,000 mm 0 W/m 3,7 C 4,9 C 19,3 km/h (3 Bft) 100 %
01.03.2017 21:30 4,9 C 4,9 C 4,9 C 92 % 1004,4 hPa 0,0 l/m 8,0 km/h (2 Bft) S-SO 157 0 min 0,000 mm 0 W/m 3,7 C 3,5 C 17,7 km/h (3 Bft) 100 %
01.03.2017 21:40 5,0 C 4,9 C 5,0 C 92 % 1004,3 hPa 0,2 l/m 9,7 km/h (2 Bft) S 180 0 min 0,000 mm 0 W/m 3,8 C 2,3 C 19,3 km/h (3 Bft) 100 %
01.03.2017 21:50 4,9 C 4,9 C 5,0 C 92 % 1004,3 hPa 0,2 l/m 9,7 km/h (2 Bft) S 180 0 min 0,000 mm 0 W/m 3,7 C 2,2 C 20,9 km/h (4 Bft) 100 %
01.03.2017 22:00 4,9 C 4,9 C 5,0 C 92 % 1004,4 hPa 0,2 l/m 11,3 km/h (2 Bft) S 180 0 min 0,000 mm 0 W/m 3,7 C 1,1 C 22,5 km/h (4 Bft) 100 %
01.03.2017 22:10 4,9 C 4,9 C 4,9 C 92 % 1004,5 hPa 0,4 l/m 9,7 km/h (2 Bft) S 180 0 min 0,000 mm 0 W/m 3,7 C 2,2 C 20,9 km/h (4 Bft) 100 %
01.03.2017 22:20 4,9 C 4,9 C 4,9 C 92 % 1004,5 hPa 0,2 l/m 9,7 km/h (2 Bft) S-SO 157 0 min 0,000 mm 0 W/m 3,7 C 2,2 C 19,3 km/h (3 Bft) 100 %
01.03.2017 22:30 4,9 C 4,9 C 5,0 C 91 % 1004,3 hPa 0,2 l/m 11,3 km/h (2 Bft) S-SO 157 0 min 0,000 mm 0 W/m 3,6 C 1,1 C 22,5 km/h (4 Bft) 100 %
01.03.2017 22:40 4,9 C 4,9 C 5,0 C 92 % 1004,2 hPa 0,4 l/m 9,7 km/h (2 Bft) S-SO 157 0 min 0,000 mm 0 W/m 3,7 C 2,2 C 25,7 km/h (4 Bft) 100 %
01.03.2017 22:50 5,0 C 5,0 C 5,0 C 92 % 1004,0 hPa 0,2 l/m 12,9 km/h (3 Bft) S-SO 157 0 min 0,000 mm 0 W/m 3,8 C 0,2 C 25,7 km/h (4 Bft) 100 %
01.03.2017 23:00 5,1 C 5,0 C 5,1 C 92 % 1004,0 hPa 0,4 l/m 9,7 km/h (2 Bft) S-SO 157 0 min 0,000 mm 0 W/m 3,9 C 2,4 C 19,3 km/h (3 Bft) 100 %
01.03.2017 23:10 5,1 C 5,0 C 5,1 C 92 % 1004,2 hPa 0,2 l/m 6,4 km/h (2 Bft) S 180 0 min 0,000 mm 0 W/m 3,9 C 5,1 C 19,3 km/h (3 Bft) 100 %
01.03.2017 23:20 5,1 C 5,1 C 5,1 C 92 % 1004,0 hPa 0,4 l/m 8,0 km/h (2 Bft) S 180 0 min 0,000 mm 0 W/m 3,9 C 3,7 C 22,5 km/h (4 Bft) 100 %
01.03.2017 23:30 5,1 C 5,1 C 5,1 C 92 % 1004,2 hPa 0,4 l/m 9,7 km/h (2 Bft) S 180 0 min 0,000 mm 0 W/m 3,9 C 2,4 C 20,9 km/h (4 Bft) 100 %
01.03.2017 23:40 5,2 C 5,1 C 5,2 C 92 % 1004,1 hPa 0,4 l/m 11,3 km/h (2 Bft) S 180 0 min 0,000 mm 0 W/m 4,0 C 1,4 C 20,9 km/h (4 Bft) 100 %
01.03.2017 23:50 5,2 C 5,1 C 5,2 C 92 % 1003,9 hPa 0,6 l/m 11,3 km/h (2 Bft) S 180 0 min 0,000 mm 0 W/m 4,0 C 1,4 C 19,3 km/h (3 Bft) 100 %
_ Min-Zeit 03:30 03:30 03:40 12:40 00:00 - 20:10 - - - - - 03:00 04:20 19:40 01:10
Minimum _ 2,8 C 2,8 C 2,8 C 76 % 1000,9 hPa - 3,5 km/h (1 Bft) - - - - - 0,8 C -6,2 C 9,7 km/h (2 Bft) 87 %
_ Max-Zeit 12:40 15:30 12:40 20:20 17:30 23:50 17:30 - - 09:10 11:00 12:30 17:00 16:00 10:10 07:10
Maximum _ 7,6 C 7,3 C 7,6 C 92 % 1007,0 hPa 0,6 l/m 25,3 km/h
S-SW (4 Bft)
- - 10 min 0,127 mm 649 W/m 4,4 C 6,3 C 59,5 km/h
SW (7 Bft)
100 %
Durchschnitt _ 4,9 C 4,8 C 4,9 C 87 % 1004,5 hPa #8,6 l/m 13,9 km/h (3 Bft) SW - #3:40 h #0,940 mm 139 W/m 2,8 C -0,2 C 30,4 km/h (5 Bft) 98 %
PRIVATE WETTERSTATION BILLIGHEIM-ALLFELD - www.neckar-odenwald-wetter.de - Holger Sonntag